Time;durP1;ratioP1;P1;durP2;ratioP2;P2;SDS_P1;SDS_P2;PMS_P1;PMS_P2;Temp;Humidity;BMP_temperature;BMP_pressure;BME280_temperature;BME280_humidity;BME280_pressure;Samples;Min_cycle;Max_cycle;Signal;HPM_P1;HPM_P2
2021/12/26 00:01:16;;;;;;;;;;;;;;;5.01;55.37;99013.16;4464815;32;34033;-72
2021/12/26 00:03:44;;;;;;;;;;;;;;;5.32;54.59;99009.38;4467160;32;35114;-69
2021/12/26 00:06:13;;;;;;;;;;;;;;;5.31;54.07;98999.72;4474163;32;34214;-73
2021/12/26 00:08:40;;;;;;;;;;;;;;;4.36;57.34;99018.94;4477353;31;34424;-73
2021/12/26 00:11:10;;;;;;;;;;;;;;;4.84;55.88;99008.91;4469604;32;34419;-70
2021/12/26 00:13:37;;;;;;;;;;;;;;;4.23;57.81;99009.19;4472159;32;34114;-70
2021/12/26 00:16:05;;;;;;;;;;;;;;;3.89;58.30;99006.78;4471650;32;33418;-70
2021/12/26 00:18:32;;;;;;;;;;;;;;;4.08;58.55;98997.75;4473670;32;33936;-70
2021/12/26 00:21:00;;;;;;;;;;;;;;;4.09;58.31;99005.59;4473894;31;35356;-70
2021/12/26 00:23:27;;;;;;;;;;;;;;;4.25;57.87;99008.16;4476257;32;33082;-71
2021/12/26 00:25:54;;;;;;;;;;;;;;;4.43;58.02;99009.69;4473651;31;33461;-70
2021/12/26 00:28:22;;;;;;;;;;;;;;;4.59;58.18;99014.03;4476976;32;33872;-69
2021/12/26 00:30:49;;;;;;;;;;;;;;;4.73;57.69;99019.34;4474620;31;33832;-70
2021/12/26 00:33:17;;;;;;;;;;;;;;;4.73;56.62;99010.53;4472882;32;35539;-68
2021/12/26 00:35:44;;;;;;;;;;;;;;;4.23;58.44;99011.84;4473631;31;33590;-71
2021/12/26 00:38:13;;;;;;;;;;;;;;;3.99;58.56;99016.81;4468866;32;34021;-70
2021/12/26 00:40:40;;;;;;;;;;;;;;;4.75;56.80;99020.13;4472488;32;33963;-68
2021/12/26 00:43:08;;;;;;;;;;;;;;;4.81;56.99;99006.44;4474151;32;32715;-69
2021/12/26 00:45:35;;;;;;;;;;;;;;;3.78;58.35;99013.62;4476063;32;33353;-68
2021/12/26 00:48:03;;;;;;;;;;;;;;;4.02;57.92;99014.84;4467027;31;34007;-68
2021/12/26 00:50:31;;;;;;;;;;;;;;;4.82;56.00;99013.47;4474343;32;33199;-72
2021/12/26 00:52:59;;;;;;;;;;;;;;;4.97;55.57;99013.44;4475246;32;34002;-69
2021/12/26 00:55:27;;;;;;;;;;;;;;;4.87;55.52;99024.63;4478995;32;33442;-72
2021/12/26 00:57:55;;;;;;;;;;;;;;;4.99;55.75;99027.47;4465761;32;34024;-68
2021/12/26 01:00:28;;;;;;;;;;;;;;;5.25;54.78;99024.00;4472201;32;34078;-69
2021/12/26 01:02:56;;;;;;;;;;;;;;;4.15;57.58;99026.41;4467716;31;34318;-69
2021/12/26 01:05:25;;;;;;;;;;;;;;;4.81;55.88;99021.50;4468704;32;33303;-70
2021/12/26 01:07:58;;;;;;;;;;;;;;;4.71;55.88;99026.53;4467562;31;34091;-71
2021/12/26 01:10:27;;;;;;;;;;;;;;;4.43;56.90;99030.91;4474837;32;32681;-69
2021/12/26 01:12:54;;;;;;;;;;;;;;;4.62;56.01;99030.63;4468919;32;32835;-69
2021/12/26 01:15:23;;;;;;;;;;;;;;;4.35;57.06;99025.19;4475227;31;34125;-69
2021/12/26 01:17:56;;;;;;;;;;;;;;;4.72;56.22;99020.31;4474061;32;34809;-72
2021/12/26 01:23:18;;;;;;;;;;;;;;;4.28;57.34;99031.81;4460718;32;33175;-68
2021/12/26 01:25:46;;;;;;;;;;;;;;;3.67;59.55;99036.28;4467006;32;32947;-67
2021/12/26 01:28:14;;;;;;;;;;;;;;;4.22;59.13;99040.13;4469932;32;32841;-67
2021/12/26 01:30:42;;;;;;;;;;;;;;;4.03;58.47;99037.72;4467497;32;33972;-69
2021/12/26 01:33:10;;;;;;;;;;;;;;;4.67;55.98;99040.94;4472142;32;35353;-70
2021/12/26 01:35:39;;;;;;;;;;;;;;;3.90;58.84;99039.41;4464857;32;33307;-69
2021/12/26 01:38:09;;;;;;;;;;;;;;;4.61;55.35;99043.97;4465486;32;34144;-67
2021/12/26 01:40:39;;;;;;;;;;;;;;;4.45;56.15;99038.75;4474100;31;35419;-67
2021/12/26 01:43:07;;;;;;;;;;;;;;;4.68;55.69;99043.47;4473741;32;33137;-70
2021/12/26 01:45:35;;;;;;;;;;;;;;;4.36;56.57;99044.59;4475448;32;33465;-69
2021/12/26 01:48:03;;;;;;;;;;;;;;;4.25;57.72;99042.59;4470133;32;34240;-68
2021/12/26 01:50:32;;;;;;;;;;;;;;;4.52;56.61;99042.72;4468748;32;35431;-67
2021/12/26 01:52:59;;;;;;;;;;;;;;;4.87;55.43;99035.22;4477708;31;34093;-68
2021/12/26 01:55:38;;;;;;;;;;;;;;;5.12;54.69;99033.69;4464921;32;33531;-66
2021/12/26 01:58:08;;;;;;;;;;;;;;;5.41;53.34;99037.12;4464136;32;34081;-69
2021/12/26 02:00:36;;;;;;;;;;;;;;;5.01;54.54;99038.81;4471057;32;35329;-66
2021/12/26 02:03:04;;;;;;;;;;;;;;;5.24;53.86;99032.91;4466393;32;34003;-69
2021/12/26 02:05:32;;;;;;;;;;;;;;;5.00;54.24;99029.16;4474800;32;33221;-72
2021/12/26 02:08:01;;;;;;;;;;;;;;;4.59;56.62;99024.63;4474582;31;35484;-71
2021/12/26 02:10:29;;;;;;;;;;;;;;;5.00;55.20;99029.16;4474260;32;34126;-70
2021/12/26 02:12:56;;;;;;;;;;;;;;;4.96;55.61;99019.69;4473207;31;34218;-70
2021/12/26 02:15:24;;;;;;;;;;;;;;;5.20;54.26;99020.81;4474595;32;33737;-71
2021/12/26 02:17:52;;;;;;;;;;;;;;;5.20;55.51;99020.81;4471140;32;32943;-72
2021/12/26 02:20:23;;;;;;;;;;;;;;;5.42;53.55;99016.72;4473022;31;33993;-70
2021/12/26 02:22:56;;;;;;;;;;;;;;;4.77;55.64;99023.50;4472254;32;33000;-68
2021/12/26 02:27:54;;;;;;;;;;;;;;;4.86;56.01;99025.59;4476011;32;33227;-69
2021/12/26 02:30:23;;;;;;;;;;;;;;;5.69;53.07;99027.38;4470335;32;33665;-70
2021/12/26 02:32:51;;;;;;;;;;;;;;;5.74;52.40;99034.06;4470347;32;32921;-68
2021/12/26 02:35:20;;;;;;;;;;;;;;;5.59;54.13;99037.75;4468590;32;34368;-72
2021/12/26 02:37:47;;;;;;;;;;;;;;;6.04;53.20;99023.22;4476717;32;34014;-71
2021/12/26 02:40:16;;;;;;;;;;;;;;;6.10;51.81;99029.06;4476001;31;34232;-68
2021/12/26 02:42:45;;;;;;;;;;;;;;;6.41;50.13;99035.81;4471152;32;33717;-70
2021/12/26 02:45:12;;;;;;;;;;;;;;;6.16;51.70;99039.28;4472505;32;33953;-69
2021/12/26 02:47:44;;;;;;;;;;;;;;;5.76;52.30;99029.50;4472429;31;33695;-70
2021/12/26 02:50:16;;;;;;;;;;;;;;;6.23;52.26;99033.47;4470484;32;34476;-70
2021/12/26 02:52:44;;;;;;;;;;;;;;;6.12;51.35;99032.47;4465326;32;34996;-72
2021/12/26 02:55:12;;;;;;;;;;;;;;;6.62;49.56;99028.16;4470257;32;34809;-71
2021/12/26 02:57:40;;;;;;;;;;;;;;;6.91;49.81;99029.62;4470879;31;35094;-72
2021/12/26 03:00:09;;;;;;;;;;;;;;;7.60;46.97;99027.25;4472188;32;34402;-72
2021/12/26 03:02:40;;;;;;;;;;;;;;;7.73;46.40;99023.69;4475964;32;34421;-71
2021/12/26 03:05:08;;;;;;;;;;;;;;;7.68;46.71;99029.38;4470375;32;33599;-74
2021/12/26 03:07:36;;;;;;;;;;;;;;;7.82;46.64;99028.34;4471497;31;34894;-72
2021/12/26 03:10:04;;;;;;;;;;;;;;;8.27;44.72;99031.16;4472868;32;34492;-71
2021/12/26 03:12:33;;;;;;;;;;;;;;;7.96;45.31;99037.94;4470865;32;35176;-71
2021/12/26 03:15:01;;;;;;;;;;;;;;;7.97;45.29;99037.00;4471354;32;33137;-70
2021/12/26 03:17:28;;;;;;;;;;;;;;;8.51;44.90;99039.13;4473630;32;35057;-71
2021/12/26 03:19:56;;;;;;;;;;;;;;;8.48;44.48;99034.88;4472236;31;34137;-71
2021/12/26 03:22:24;;;;;;;;;;;;;;;8.88;43.82;99025.56;4465008;32;34225;-72
2021/12/26 03:24:51;;;;;;;;;;;;;;;8.78;43.70;99028.94;4466692;32;33383;-72
2021/12/26 03:27:19;;;;;;;;;;;;;;;8.75;43.44;99033.69;4468376;32;33971;-72
2021/12/26 03:29:47;;;;;;;;;;;;;;;9.33;42.29;99032.53;4470256;32;34465;-73
2021/12/26 03:32:14;;;;;;;;;;;;;;;9.23;42.13;99033.41;4471063;32;35022;-72
2021/12/26 03:34:48;;;;;;;;;;;;;;;8.68;42.43;99027.13;4471504;32;34224;-76
2021/12/26 03:37:16;;;;;;;;;;;;;;;9.10;42.65;99028.22;4472560;32;34263;-73
2021/12/26 03:39:43;;;;;;;;;;;;;;;9.08;42.72;99030.16;4476889;32;34465;-74
2021/12/26 03:42:11;;;;;;;;;;;;;;;9.63;41.24;99020.34;4469176;32;32821;-71
2021/12/26 03:44:39;;;;;;;;;;;;;;;9.84;40.71;99025.72;4475597;32;33534;-73
2021/12/26 03:47:06;;;;;;;;;;;;;;;9.21;41.48;99028.22;4473237;32;33856;-74
2021/12/26 03:49:33;;;;;;;;;;;;;;;9.80;40.40;99017.13;4473379;32;33937;-74
2021/12/26 03:52:01;;;;;;;;;;;;;;;9.84;40.34;99015.03;4473074;31;35323;-75
2021/12/26 03:54:28;;;;;;;;;;;;;;;9.81;40.48;99015.28;4472953;32;34448;-73
2021/12/26 03:56:55;;;;;;;;;;;;;;;8.76;42.42;99019.34;4475934;32;35109;-72
2021/12/26 03:59:23;;;;;;;;;;;;;;;9.65;40.86;99017.53;4473264;32;35935;-71
2021/12/26 04:01:51;;;;;;;;;;;;;;;10.09;38.98;99019.19;4477871;31;35005;-73
2021/12/26 04:04:19;;;;;;;;;;;;;;;9.91;39.82;99018.87;4473877;32;33125;-73
2021/12/26 04:06:47;;;;;;;;;;;;;;;9.99;38.91;99012.91;4472214;32;33710;-71
2021/12/26 04:09:15;;;;;;;;;;;;;;;9.35;40.34;99018.25;4469560;31;34416;-73
2021/12/26 04:11:45;;;;;;;;;;;;;;;9.64;40.31;99016.69;4471034;32;32355;-72
2021/12/26 04:14:13;;;;;;;;;;;;;;;9.86;40.24;99013.09;4470821;32;33527;-73
2021/12/26 04:16:41;;;;;;;;;;;;;;;10.20;38.49;99018.25;4471101;32;34229;-71
2021/12/26 04:19:09;;;;;;;;;;;;;;;10.49;38.04;99016.66;4469852;32;34349;-73
2021/12/26 04:21:36;;;;;;;;;;;;;;;10.30;39.13;99018.37;4469993;32;34276;-72
2021/12/26 04:24:04;;;;;;;;;;;;;;;10.31;38.29;99015.56;4471152;32;32842;-70
2021/12/26 04:26:32;;;;;;;;;;;;;;;10.69;37.44;99022.97;4471007;32;34359;-70
2021/12/26 04:29:00;;;;;;;;;;;;;;;10.81;36.90;99021.03;4470751;32;34460;-71
2021/12/26 04:31:27;;;;;;;;;;;;;;;10.15;39.21;99024.00;4471234;32;34444;-72
2021/12/26 04:33:55;;;;;;;;;;;;;;;10.30;38.89;99021.88;4470604;32;34387;-71
2021/12/26 04:36:22;;;;;;;;;;;;;;;10.46;38.25;99038.34;4470767;32;34501;-72
2021/12/26 04:38:49;;;;;;;;;;;;;;;10.57;37.56;99039.25;4470938;32;35303;-72
2021/12/26 04:41:17;;;;;;;;;;;;;;;10.32;37.14;99043.16;4470574;32;34488;-71
2021/12/26 04:43:46;;;;;;;;;;;;;;;9.62;37.82;99048.03;4470708;32;33563;-72
2021/12/26 04:46:13;;;;;;;;;;;;;;;10.52;36.52;99054.84;4470636;32;34325;-72
2021/12/26 04:48:43;;;;;;;;;;;;;;;10.70;36.33;99051.44;4471054;32;33097;-73
2021/12/26 04:51:10;;;;;;;;;;;;;;;10.41;37.13;99061.13;4470868;32;35472;-72
2021/12/26 04:53:38;;;;;;;;;;;;;;;10.58;36.40;99057.84;4469424;32;32448;-74
2021/12/26 04:56:06;;;;;;;;;;;;;;;10.79;35.50;99059.66;4469372;32;34259;-74
2021/12/26 04:58:33;;;;;;;;;;;;;;;10.79;35.52;99065.84;4470746;32;35705;-72
2021/12/26 05:01:01;;;;;;;;;;;;;;;10.70;35.38;99055.94;4469586;32;34049;-71
2021/12/26 05:03:29;;;;;;;;;;;;;;;10.02;35.43;99056.28;4470800;32;33399;-73
2021/12/26 05:05:56;;;;;;;;;;;;;;;10.61;35.14;99064.75;4470724;32;34403;-73
2021/12/26 05:08:23;;;;;;;;;;;;;;;10.59;35.47;99059.53;4470735;32;33336;-71
2021/12/26 05:10:51;;;;;;;;;;;;;;;10.11;35.26;99067.16;4469787;32;32680;-73
2021/12/26 05:13:18;;;;;;;;;;;;;;;10.50;35.52;99068.34;4472442;31;33377;-71
2021/12/26 05:15:46;;;;;;;;;;;;;;;10.00;35.91;99062.72;4470973;32;34679;-71
2021/12/26 05:18:14;;;;;;;;;;;;;;;9.94;36.05;99068.56;4475905;31;35200;-71
2021/12/26 05:20:42;;;;;;;;;;;;;;;10.53;34.71;99078.81;4466435;32;32959;-72
2021/12/26 05:23:09;;;;;;;;;;;;;;;10.49;34.62;99080.88;4465311;32;33332;-70
2021/12/26 05:25:37;;;;;;;;;;;;;;;9.90;35.04;99085.84;4473803;32;34290;-71
2021/12/26 05:28:04;;;;;;;;;;;;;;;10.16;33.78;99087.22;4474870;32;33158;-71
2021/12/26 05:30:31;;;;;;;;;;;;;;;10.22;34.67;99083.19;4471945;32;34123;-70
2021/12/26 05:33:00;;;;;;;;;;;;;;;10.57;34.25;99092.78;4471505;32;36070;-71
2021/12/26 05:35:28;;;;;;;;;;;;;;;10.65;33.85;99087.59;4470245;32;32885;-71
2021/12/26 05:37:55;;;;;;;;;;;;;;;10.82;33.05;99096.84;4474643;32;35288;-72
2021/12/26 05:40:23;;;;;;;;;;;;;;;10.35;32.84;99110.63;4473321;32;34349;-71
2021/12/26 05:42:50;;;;;;;;;;;;;;;10.54;32.31;99101.91;4472565;32;34233;-71
2021/12/26 05:45:18;;;;;;;;;;;;;;;10.85;32.25;99101.94;4472896;31;35195;-70
2021/12/26 05:47:47;;;;;;;;;;;;;;;10.62;32.27;99098.56;4477557;32;34425;-71
2021/12/26 05:50:17;;;;;;;;;;;;;;;10.77;31.06;99101.75;4477478;32;35189;-70
2021/12/26 05:52:44;;;;;;;;;;;;;;;10.89;31.50;99109.59;4474187;32;33018;-71
2021/12/26 05:55:12;;;;;;;;;;;;;;;10.88;31.35;99110.56;4472921;32;34017;-70
2021/12/26 05:57:40;;;;;;;;;;;;;;;10.93;30.69;99107.50;4479102;31;34400;-71
2021/12/26 06:00:08;;;;;;;;;;;;;;;11.01;30.80;99110.38;4473595;32;34474;-71
2021/12/26 06:02:42;;;;;;;;;;;;;;;10.75;30.96;99114.41;4480299;32;33309;-70
2021/12/26 06:05:10;;;;;;;;;;;;;;;10.82;31.00;99118.25;4476288;32;34198;-71
2021/12/26 06:07:38;;;;;;;;;;;;;;;10.86;30.96;99119.72;4474209;32;33035;-73
2021/12/26 06:10:05;;;;;;;;;;;;;;;11.00;30.58;99121.19;4478657;32;33955;-72
2021/12/26 06:12:33;;;;;;;;;;;;;;;11.13;30.62;99128.03;4475444;32;33557;-73
2021/12/26 06:15:02;;;;;;;;;;;;;;;11.00;30.53;99135.44;4473796;32;34131;-71
2021/12/26 06:17:30;;;;;;;;;;;;;;;10.85;30.22;99126.03;4468812;32;34419;-72
2021/12/26 06:20:03;;;;;;;;;;;;;;;10.54;30.76;99131.31;4468114;32;34066;-71
2021/12/26 06:22:30;;;;;;;;;;;;;;;10.86;30.28;99141.97;4475318;32;33377;-71
2021/12/26 06:24:59;;;;;;;;;;;;;;;10.60;30.66;99132.66;4475689;32;34316;-72
2021/12/26 06:27:26;;;;;;;;;;;;;;;10.85;29.43;99139.41;4471148;32;34088;-71
2021/12/26 06:30:00;;;;;;;;;;;;;;;10.76;29.63;99135.72;4478237;32;34285;-69
2021/12/26 06:32:29;;;;;;;;;;;;;;;10.83;29.45;99138.72;4467729;32;31999;-72
2021/12/26 06:35:01;;;;;;;;;;;;;;;10.91;29.48;99141.56;4469196;32;32698;-71
2021/12/26 06:37:36;;;;;;;;;;;;;;;10.86;29.57;99144.66;4476912;32;35446;-71
2021/12/26 06:40:12;;;;;;;;;;;;;;;11.07;29.40;99149.97;4476909;32;31600;-72
2021/12/26 06:42:49;;;;;;;;;;;;;;;10.86;29.64;99152.69;4475246;32;33394;-72
2021/12/26 06:45:22;;;;;;;;;;;;;;;11.13;28.98;99151.28;4474354;32;34369;-71
2021/12/26 06:47:52;;;;;;;;;;;;;;;10.99;28.58;99154.31;4477127;32;34345;-70
2021/12/26 06:50:20;;;;;;;;;;;;;;;10.47;29.61;99159.59;4475763;32;34217;-71
2021/12/26 06:52:48;;;;;;;;;;;;;;;10.32;29.88;99161.69;4476003;32;32208;-70
2021/12/26 06:55:16;;;;;;;;;;;;;;;10.44;28.66;99159.84;4474056;32;35202;-70
2021/12/26 06:57:43;;;;;;;;;;;;;;;10.75;28.11;99163.44;4477725;32;35407;-70
2021/12/26 07:00:12;;;;;;;;;;;;;;;11.05;27.83;99169.87;4474593;32;35069;-71
2021/12/26 07:02:39;;;;;;;;;;;;;;;11.12;27.38;99165.66;4471155;32;33781;-70
2021/12/26 07:05:07;;;;;;;;;;;;;;;10.84;26.11;99165.34;4473130;32;34228;-70
2021/12/26 07:07:35;;;;;;;;;;;;;;;11.32;26.85;99172.81;4476110;32;32775;-71
2021/12/26 07:10:03;;;;;;;;;;;;;;;11.30;27.25;99168.56;4473152;32;34305;-71
2021/12/26 07:12:30;;;;;;;;;;;;;;;11.15;27.29;99178.78;4466991;32;33766;-71
2021/12/26 07:14:58;;;;;;;;;;;;;;;11.52;28.09;99180.94;4467682;32;35239;-71
2021/12/26 07:17:26;;;;;;;;;;;;;;;11.83;27.67;99179.09;4473422;32;34062;-71
2021/12/26 07:19:54;;;;;;;;;;;;;;;11.87;27.70;99176.03;4477994;32;34138;-71
2021/12/26 07:22:23;;;;;;;;;;;;;;;11.87;27.60;99177.87;4471630;32;33361;-71
2021/12/26 07:24:51;;;;;;;;;;;;;;;12.12;27.56;99182.72;4476893;32;34383;-71
2021/12/26 07:27:18;;;;;;;;;;;;;;;12.45;26.53;99180.66;4470940;32;33179;-72
2021/12/26 07:29:48;;;;;;;;;;;;;;;12.19;26.38;99184.84;4480728;32;35339;-71
2021/12/26 07:32:16;;;;;;;;;;;;;;;12.54;26.46;99178.97;4474300;32;33580;-72
2021/12/26 07:34:43;;;;;;;;;;;;;;;12.46;26.56;99185.03;4472540;32;33992;-71
2021/12/26 07:37:10;;;;;;;;;;;;;;;12.11;27.04;99189.09;4474300;32;34357;-72
2021/12/26 07:39:38;;;;;;;;;;;;;;;12.58;27.00;99191.09;4470188;32;34148;-73
2021/12/26 07:42:06;;;;;;;;;;;;;;;12.43;27.45;99184.47;4472281;32;32976;-71
2021/12/26 07:44:38;;;;;;;;;;;;;;;12.60;26.85;99181.09;4474236;32;33876;-72
2021/12/26 07:47:09;;;;;;;;;;;;;;;12.44;26.76;99184.31;4471501;32;33131;-69
2021/12/26 07:49:36;;;;;;;;;;;;;;;12.56;26.82;99187.72;4473461;32;34313;-74
2021/12/26 07:52:24;;;;;;;;;;;;;;;12.11;26.80;99190.94;4475930;32;34370;-74
2021/12/26 07:55:04;;;;;;;;;;;;;;;12.68;26.20;99197.34;4476258;32;33896;-74
2021/12/26 07:57:49;;;;;;;;;;;;;;;13.06;25.19;99200.97;4475520;32;33466;-73
2021/12/26 08:00:31;;;;;;;;;;;;;;;13.01;25.67;99201.41;4472725;32;34255;-74
2021/12/26 08:02:58;;;;;;;;;;;;;;;12.96;25.94;99200.13;4476005;32;33604;-74
2021/12/26 08:05:30;;;;;;;;;;;;;;;12.66;25.85;99207.38;4470668;32;32976;-72
2021/12/26 08:07:59;;;;;;;;;;;;;;;12.54;26.03;99203.13;4471582;32;34321;-80
2021/12/26 08:10:27;;;;;;;;;;;;;;;12.11;25.99;99201.66;4475364;32;33810;-76
2021/12/26 08:12:54;;;;;;;;;;;;;;;12.30;25.62;99207.06;4474221;32;33376;-75
2021/12/26 08:15:22;;;;;;;;;;;;;;;12.42;25.74;99199.72;4472584;32;34323;-75
2021/12/26 08:17:49;;;;;;;;;;;;;;;12.30;25.64;99199.00;4475340;32;33082;-75
2021/12/26 08:20:21;;;;;;;;;;;;;;;11.53;25.44;99194.22;4470651;32;34353;-73
2021/12/26 08:22:49;;;;;;;;;;;;;;;11.88;25.79;99190.31;4473265;32;33482;-75
2021/12/26 08:25:17;;;;;;;;;;;;;;;11.99;25.19;99195.53;4468116;32;34411;-74
2021/12/26 08:27:45;;;;;;;;;;;;;;;12.00;24.84;99196.38;4475631;32;34500;-76
2021/12/26 08:30:12;;;;;;;;;;;;;;;12.22;24.69;99198.00;4476212;32;35118;-77
2021/12/26 08:32:42;;;;;;;;;;;;;;;12.23;24.58;99197.88;4475476;32;33485;-78
2021/12/26 08:35:10;;;;;;;;;;;;;;;12.15;25.42;99205.75;4467214;32;33878;-75
2021/12/26 08:37:37;;;;;;;;;;;;;;;12.32;25.49;99206.91;4468839;32;33996;-78
2021/12/26 08:40:05;;;;;;;;;;;;;;;12.29;24.99;99209.88;4474692;32;33988;-75
2021/12/26 08:42:32;;;;;;;;;;;;;;;11.85;26.09;99214.72;4475568;32;33366;-77
2021/12/26 08:45:00;;;;;;;;;;;;;;;12.86;24.33;99224.31;4474454;32;34803;-75
2021/12/26 08:47:29;;;;;;;;;;;;;;;12.99;23.87;99219.50;4476000;32;35381;-76
2021/12/26 08:49:57;;;;;;;;;;;;;;;12.63;25.65;99226.44;4476799;32;33276;-75
2021/12/26 08:52:24;;;;;;;;;;;;;;;13.31;23.31;99222.87;4478376;32;33683;-77
2021/12/26 08:54:51;;;;;;;;;;;;;;;13.34;23.61;99212.69;4470854;32;34913;-76
2021/12/26 08:57:19;;;;;;;;;;;;;;;13.56;23.32;99213.34;4477205;32;34277;-75
2021/12/26 08:59:46;;;;;;;;;;;;;;;12.98;23.49;99208.91;4479251;32;34101;-76
2021/12/26 09:02:13;;;;;;;;;;;;;;;13.85;23.29;99214.06;4481789;32;33395;-77
2021/12/26 09:04:41;;;;;;;;;;;;;;;13.78;22.26;99210.28;4469600;32;34176;-76
2021/12/26 09:07:09;;;;;;;;;;;;;;;12.96;23.63;99203.66;4479220;32;33691;-75
2021/12/26 09:09:36;;;;;;;;;;;;;;;13.64;22.66;99202.69;4473772;32;33949;-76
2021/12/26 09:12:04;;;;;;;;;;;;;;;13.59;23.20;99196.91;4477961;32;34182;-76
2021/12/26 09:14:32;;;;;;;;;;;;;;;13.74;22.84;99190.06;4475611;32;33986;-75
2021/12/26 09:16:59;;;;;;;;;;;;;;;13.74;22.38;99192.75;4474262;32;34422;-78
2021/12/26 09:19:28;;;;;;;;;;;;;;;13.94;22.01;99191.66;4474012;32;32847;-77
2021/12/26 09:21:56;;;;;;;;;;;;;;;13.56;22.68;99198.06;4476969;32;33326;-78
2021/12/26 09:24:23;;;;;;;;;;;;;;;13.31;22.43;99193.31;4469896;32;34362;-77
2021/12/26 09:26:51;;;;;;;;;;;;;;;13.53;22.77;99192.97;4473292;32;35335;-78
2021/12/26 09:29:18;;;;;;;;;;;;;;;13.43;23.22;99198.38;4469304;32;35330;-78
2021/12/26 09:31:46;;;;;;;;;;;;;;;13.56;22.80;99197.22;4442570;32;868527;-78
2021/12/26 09:34:14;;;;;;;;;;;;;;;13.72;23.29;99192.06;4469167;32;34150;-76
2021/12/26 09:36:42;;;;;;;;;;;;;;;13.18;22.53;99183.69;4470939;32;34345;-78
2021/12/26 09:39:10;;;;;;;;;;;;;;;13.61;22.81;99190.41;4477356;32;34131;-76
2021/12/26 09:41:38;;;;;;;;;;;;;;;13.36;22.63;99183.84;4481353;32;33489;-78
2021/12/26 09:44:06;;;;;;;;;;;;;;;13.63;22.39;99196.47;4469866;32;35352;-76
2021/12/26 09:46:33;;;;;;;;;;;;;;;13.53;22.22;99187.59;4467779;32;34069;-73
2021/12/26 09:49:01;;;;;;;;;;;;;;;14.57;21.30;99184.63;4471351;32;34356;-74
2021/12/26 09:51:28;;;;;;;;;;;;;;;15.15;20.67;99184.09;4472411;32;31724;-74
2021/12/26 09:53:56;;;;;;;;;;;;;;;16.46;19.41;99174.75;4474300;32;33760;-75
2021/12/26 09:56:28;;;;;;;;;;;;;;;17.73;17.77;99176.03;4474532;32;34384;-75
2021/12/26 09:58:55;;;;;;;;;;;;;;;17.99;18.18;99169.56;4480234;32;34119;-78
2021/12/26 10:01:30;;;;;;;;;;;;;;;18.75;16.20;99167.94;4475129;32;33359;-73
2021/12/26 10:04:21;;;;;;;;;;;;;;;18.74;16.33;99169.78;4471800;32;34169;-74
2021/12/26 10:06:49;;;;;;;;;;;;;;;18.95;16.23;99165.56;4463415;32;34392;-71
2021/12/26 10:09:18;;;;;;;;;;;;;;;19.12;16.34;99167.09;4471797;32;33992;-72
2021/12/26 10:11:50;;;;;;;;;;;;;;;17.90;16.63;99161.44;4478034;32;31951;-73
2021/12/26 10:14:19;;;;;;;;;;;;;;;17.91;17.42;99167.69;4481503;32;35595;-71
2021/12/26 10:16:48;;;;;;;;;;;;;;;18.89;15.98;99161.72;4469235;32;34571;-71
2021/12/26 10:19:15;;;;;;;;;;;;;;;19.30;15.82;99154.03;4474159;32;35243;-73
2021/12/26 10:21:49;;;;;;;;;;;;;;;19.49;15.00;99159.97;4479987;32;33606;-74
2021/12/26 10:24:27;;;;;;;;;;;;;;;20.93;13.95;99150.22;4468931;32;34065;-70
2021/12/26 10:27:04;;;;;;;;;;;;;;;21.25;14.02;99147.94;4469416;32;32620;-70
2021/12/26 10:29:38;;;;;;;;;;;;;;;21.42;13.20;99148.53;4469041;32;35248;-74
2021/12/26 10:32:24;;;;;;;;;;;;;;;21.89;13.48;99145.00;4467456;32;33457;-70
2021/12/26 10:34:55;;;;;;;;;;;;;;;22.21;13.18;99145.38;4469184;32;35217;-71
2021/12/26 10:37:28;;;;;;;;;;;;;;;22.47;13.22;99142.75;4469106;32;34256;-71
2021/12/26 10:39:58;;;;;;;;;;;;;;;23.19;12.29;99130.25;4476065;32;33707;-71
2021/12/26 10:42:29;;;;;;;;;;;;;;;21.99;12.98;99136.47;4469079;32;35762;-71
2021/12/26 10:44:58;;;;;;;;;;;;;;;21.39;13.94;99138.88;4462398;32;33872;-73
2021/12/26 10:47:27;;;;;;;;;;;;;;;21.11;13.59;99134.25;4478069;32;37235;-71
2021/12/26 10:49:58;;;;;;;;;;;;;;;21.06;13.75;99133.16;4472365;31;34900;-72
2021/12/26 10:52:26;;;;;;;;;;;;;;;20.61;13.92;99137.97;4464325;32;32072;-72
2021/12/26 10:54:55;;;;;;;;;;;;;;;20.07;14.00;99135.72;4465266;32;33099;-71
2021/12/26 10:57:24;;;;;;;;;;;;;;;20.03;13.91;99148.78;4469515;32;34230;-71
2021/12/26 11:00:04;;;;;;;;;;;;;;;19.81;14.45;99138.91;4472460;32;34112;-75
2021/12/26 11:02:40;;;;;;;;;;;;;;;20.33;14.21;99141.44;4455229;32;33454;-75
2021/12/26 11:05:08;;;;;;;;;;;;;;;20.17;13.33;99134.34;4469953;32;34109;-71
2021/12/26 11:07:44;;;;;;;;;;;;;;;19.61;14.61;99138.59;4473154;32;35032;-73
2021/12/26 11:10:14;;;;;;;;;;;;;;;18.89;15.17;99144.59;4478637;32;32765;-71
2021/12/26 11:12:45;;;;;;;;;;;;;;;17.85;16.55;99144.91;4468960;32;32828;-71
2021/12/26 11:15:13;;;;;;;;;;;;;;;17.50;16.38;99143.47;4458987;32;35118;-73
2021/12/26 11:17:44;;;;;;;;;;;;;;;18.15;15.45;99140.50;4474535;32;34266;-72
2021/12/26 11:20:25;;;;;;;;;;;;;;;17.32;15.83;99132.87;4464745;32;36853;-73
2021/12/26 11:22:53;;;;;;;;;;;;;;;16.81;16.90;99132.25;4465724;32;33271;-71
2021/12/26 11:25:21;;;;;;;;;;;;;;;16.52;16.97;99141.69;4464949;32;36234;-74
2021/12/26 11:27:48;;;;;;;;;;;;;;;15.47;19.05;99148.41;4465104;32;34141;-71
2021/12/26 11:30:16;;;;;;;;;;;;;;;15.93;17.59;99135.50;4465061;32;33089;-71
2021/12/26 11:32:44;;;;;;;;;;;;;;;15.90;17.40;99132.28;4465328;32;32945;-71
2021/12/26 11:35:11;;;;;;;;;;;;;;;15.38;18.65;99134.03;4464344;32;35797;-73
2021/12/26 11:37:39;;;;;;;;;;;;;;;15.02;18.29;99135.16;4465292;32;34170;-71
2021/12/26 11:40:10;;;;;;;;;;;;;;;15.25;19.19;99136.34;4476940;32;32488;-71
2021/12/26 11:43:04;;;;;;;;;;;;;;;14.34;19.55;99147.34;4473766;32;32069;-70
2021/12/26 11:45:47;;;;;;;;;;;;;;;14.94;18.35;99137.81;4473861;32;33860;-71
2021/12/26 11:48:50;;;;;;;;;;;;;;;15.11;17.94;99151.22;4476426;32;33867;-74
2021/12/26 11:51:34;;;;;;;;;;;;;;;14.85;18.75;99155.75;4474931;32;35164;-72
2021/12/26 11:54:06;;;;;;;;;;;;;;;14.72;19.37;99160.69;4466307;32;33166;-71
2021/12/26 11:56:41;;;;;;;;;;;;;;;14.57;19.90;99153.16;4470790;32;33783;-72
2021/12/26 11:59:08;;;;;;;;;;;;;;;14.70;20.07;99151.91;4477083;32;34016;-71
2021/12/26 12:01:39;;;;;;;;;;;;;;;14.20;21.80;99155.97;4476128;31;34024;-72
2021/12/26 12:04:17;;;;;;;;;;;;;;;13.97;21.81;99160.94;4475069;32;31675;-72
2021/12/26 12:06:46;;;;;;;;;;;;;;;13.83;21.86;99161.41;4472315;32;33971;-72
2021/12/26 12:09:32;;;;;;;;;;;;;;;13.97;21.95;99166.31;4478927;32;32991;-72
2021/12/26 12:12:02;;;;;;;;;;;;;;;13.94;22.90;99172.84;4478671;31;34717;-72
2021/12/26 12:14:52;;;;;;;;;;;;;;;13.82;21.55;99162.41;4473376;32;32809;-73
2021/12/26 12:17:22;;;;;;;;;;;;;;;13.71;21.48;99171.53;4460448;32;33937;-73
2021/12/26 12:20:08;;;;;;;;;;;;;;;13.42;22.44;99171.66;4475619;32;34444;-74
2021/12/26 12:22:36;;;;;;;;;;;;;;;13.00;23.11;99163.94;4473438;31;34283;-74
2021/12/26 12:25:22;;;;;;;;;;;;;;;13.31;22.56;99167.28;4473566;32;33032;-70
2021/12/26 12:28:06;;;;;;;;;;;;;;;13.42;22.64;99171.66;4471917;32;34822;-73
2021/12/26 12:30:34;;;;;;;;;;;;;;;13.53;22.90;99163.41;4473469;32;33578;-73
2021/12/26 12:33:14;;;;;;;;;;;;;;;13.46;22.71;99159.62;4473124;32;34846;-71
2021/12/26 12:36:04;;;;;;;;;;;;;;;13.36;22.12;99164.19;4474350;32;32120;-70
2021/12/26 12:38:34;;;;;;;;;;;;;;;13.16;22.50;99156.16;4460564;32;33000;-70
2021/12/26 12:41:28;;;;;;;;;;;;;;;13.07;22.96;99148.97;4468617;32;34063;-70
2021/12/26 12:43:56;;;;;;;;;;;;;;;12.97;23.66;99148.09;4467008;32;34427;-71
2021/12/26 12:46:24;;;;;;;;;;;;;;;13.43;22.86;99143.78;4466746;32;33352;-70
2021/12/26 12:49:08;;;;;;;;;;;;;;;13.52;23.44;99137.53;4466926;32;34302;-70
2021/12/26 12:51:37;;;;;;;;;;;;;;;13.15;23.30;99130.25;4466556;32;34034;-71
2021/12/26 12:54:05;;;;;;;;;;;;;;;13.31;22.22;99124.28;4466203;32;34231;-70
2021/12/26 12:56:44;;;;;;;;;;;;;;;12.87;23.65;99131.16;4466819;32;33373;-70
2021/12/26 12:59:12;;;;;;;;;;;;;;;12.94;23.99;99126.94;4472667;32;33991;-74
2021/12/26 13:01:42;;;;;;;;;;;;;;;12.71;26.33;99123.69;4467304;32;34378;-71
2021/12/26 13:04:10;;;;;;;;;;;;;;;13.41;24.91;99119.72;4473300;32;34550;-73
2021/12/26 13:06:52;;;;;;;;;;;;;;;13.11;26.44;99120.78;4466629;32;33578;-70
2021/12/26 13:09:19;;;;;;;;;;;;;;;13.43;25.86;99117.75;4473056;32;35283;-69